^^
Datos históricos de la estación: Murcia-Puente Tocinos
Diario Informe para Febrero 4, 2019 Unidades:  Ingés    Métrico   Ambas
Diario Semanal Mensual Anual
  Máxima: Mínima: Promedio:
Temperatura: 75.9 °F 55.2 °F 63.9 °F
Punto de rocio: 55.6 °F 35.8 °F 49.6 °F
Humedad: 87% 26% 63%
Velocidad viento: 13mph 0mph 4.7mph
Racha viento: 23.5mph - -
Viento- - SSO
Presión: 29.9 in 29.8 in -
Precipitación: 0 in    
 
 
Tabla de datos para Febrero 4, 2019
Hora Temperatura Punto de rocio Presión Viento Velocidad viento Racha viento Humedad Intensidad lluvia(por hora) Nubes
00:04 59.2 °F 52.3 °F 29.9 in NE 5.2 mph 7 mph 78% 0 in
00:09 59.2 °F 52.3 °F 29.9 in NE 4.8 mph 7 mph 78% 0 in
00:14 59.2 °F 52.3 °F 29.9 in NNE 3.6 mph 7 mph 78% 0 in
00:19 59.2 °F 52.3 °F 29.9 in NE 3.6 mph 6.2 mph 78% 0 in
00:24 59 °F 52.2 °F 29.9 in NE 3.6 mph 6 mph 78% 0 in
00:29 59 °F 52 °F 29.9 in NE 3.4 mph 6.9 mph 77.7% 0 in
00:34 59 °F 51.8 °F 29.9 in NNE 3.1 mph 7 mph 77.3% 0 in
00:39 58.8 °F 52 °F 29.9 in NNE 3.5 mph 7 mph 78% 0 in
00:44 58.8 °F 52.2 °F 29.9 in NNE 4.3 mph 6 mph 78.5% 0 in
00:49 58.6 °F 52 °F 29.9 in NNE 3.4 mph 5 mph 78.2% 0 in
00:54 58.6 °F 51.8 °F 29.9 in ENE 1.8 mph 5 mph 78% 0 in
00:59 58.6 °F 51.8 °F 29.9 in ENE 1.6 mph 3.5 mph 78% 0 in
01:04 58.5 °F 51.6 °F 29.9 in ENE 1.4 mph 3 mph 78% 0 in
01:09 58.5 °F 51.6 °F 29.9 in ENE 0.9 mph 3.5 mph 78% 0 in
01:14 58.5 °F 51.4 °F 29.9 in Calm   3 mph 77.2% 0 in
01:19 58.5 °F 51.3 °F 29.9 in Calm   1.8 mph 77% 0 in
01:24 58.5 °F 51.6 °F 29.9 in Calm   2.3 mph 78% 0 in
01:29 58.5 °F 51.6 °F 29.9 in Calm   2.3 mph 78% 0 in
01:34 58.5 °F 51.6 °F 29.9 in Calm     78% 0 in
01:39 58.5 °F 51.6 °F 29.9 in Calm     78% 0 in
01:44 58.5 °F 51.6 °F 29.9 in Calm   3.5 mph 78% 0 in
01:49 58.3 °F 51.4 °F 29.9 in ENE 0.5 mph 3.5 mph 78% 0 in
01:54 58.1 °F 51.6 °F 29.9 in ENE 1.4 mph 3 mph 79% 0 in
01:59 57.9 °F 51.4 °F 29.9 in ENE 0.7 mph 3.6 mph 79% 0 in
02:04 57.9 °F 51.4 °F 29.9 in Calm   4 mph 79% 0 in
02:09 57.9 °F 51.4 °F 29.9 in Calm   3 mph 79% 0 in
02:14 57.9 °F 51.4 °F 29.9 in Calm     79% 0 in
02:19 57.7 °F 51.3 °F 29.9 in Calm     79% 0 in
02:24 57.7 °F 51.3 °F 29.9 in Calm     79% 0 in
02:29 57.7 °F 51.3 °F 29.9 in Calm   3.6 mph 79% 0 in
02:34 57.6 °F 51.1 °F 29.9 in Calm   4 mph 79% 0 in
02:39 57.6 °F 51.1 °F 29.9 in Oeste 0.6 mph 4.6 mph 79% 0 in
02:44 57.7 °F 51.3 °F 29.9 in Oeste 2 mph 5 mph 79% 0 in
02:49 57.6 °F 51.1 °F 29.9 in Oeste 1.8 mph 3.5 mph 79% 0 in
02:54 57.6 °F 51.1 °F 29.9 in Oeste 1.4 mph 3.1 mph 79% 0 in
02:59 57.7 °F 51.3 °F 29.9 in Oeste 1.4 mph 3 mph 79% 0 in
03:04 57.7 °F 51.3 °F 29.9 in Oeste 1.4 mph 1 mph 79% 0 in
03:09 57.7 °F 51.3 °F 29.9 in Oeste 0.9 mph 2 mph 79% 0 in
03:14 57.9 °F 51.4 °F 29.9 in Calm   6.2 mph 79% 0 in
03:19 57.7 °F 51.6 °F 29.9 in SO 1 mph 6.9 mph 79.7% 0 in
03:24 57.7 °F 51.6 °F 29.9 in SSO 3.1 mph 7 mph 80% 0 in
03:29 57.7 °F 51.6 °F 29.9 in SSO 3.4 mph 7 mph 80.1% 0 in
03:34 57.7 °F 51.8 °F 29.9 in SSO 4 mph 6.2 mph 81% 0 in
03:39 57.6 °F 52 °F 29.9 in SSO 4.1 mph 6.9 mph 81.7% 0 in
03:44 57.6 °F 52.2 °F 29.9 in SSO 4.3 mph 8.1 mph 82% 0 in
03:49 57.6 °F 52.2 °F 29.9 in SSO 4.4 mph 8 mph 82.3% 0 in
03:54 57.4 °F 52.3 °F 29.8 in SSO 4.7 mph 7.4 mph 83% 0 in
03:59 57.4 °F 52.3 °F 29.8 in SSO 4.7 mph 8.1 mph 83% 0 in
04:04 57.2 °F 52.2 °F 29.9 in SSO 4.7 mph 8.1 mph 83% 0 in
04:09 57 °F 52 °F 29.9 in SSO 4.7 mph 8 mph 83% 0 in
04:14 57 °F 52 °F 29.9 in SSO 4.7 mph 6.9 mph 83% 0 in
04:19 57 °F 52 °F 29.9 in SSO 4.5 mph 7 mph 83.1% 0 in
04:24 57 °F 52.2 °F 29.8 in SO 4 mph 6 mph 84% 0 in
04:29 57 °F 52.2 °F 29.8 in OSO 3.7 mph 6.4 mph 84% 0 in
04:34 56.8 °F 52.2 °F 29.9 in SO 2.9 mph 7 mph 84% 0 in
04:39 56.8 °F 52.2 °F 29.9 in SO 3.3 mph 8.1 mph 84% 0 in
04:44 56.8 °F 52.2 °F 29.9 in OSO 4 mph 8 mph 84% 0 in
04:49 56.8 °F 52.2 °F 29.9 in OSO 3.9 mph 7 mph 84% 0 in
04:54 56.8 °F 52.2 °F 29.9 in OSO 3.6 mph 6.4 mph 84% 0 in
04:59 56.8 °F 52.2 °F 29.9 in OSO 3 mph 6 mph 84% 0 in
05:04 56.8 °F 52.2 °F 29.9 in SO 2.4 mph 5.2 mph 84% 0 in
05:09 56.8 °F 52.2 °F 29.9 in SO 2.5 mph 5.9 mph 84% 0 in
05:14 56.8 °F 52.2 °F 29.9 in SO 2.9 mph 6 mph 84% 0 in
05:19 56.8 °F 52.2 °F 29.9 in SO 3 mph 6.2 mph 84% 0 in
05:24 56.8 °F 51.8 °F 29.9 in SO 3.1 mph 9.2 mph 83.3% 0 in
05:29 56.7 °F 51.6 °F 29.9 in SO 3.4 mph 9 mph 83% 0 in
05:34 56.7 °F 51.8 °F 29.9 in SSO 4 mph 6.4 mph 83.4% 0 in
05:39 56.7 °F 51.8 °F 29.9 in SSO 3.9 mph 7 mph 84% 0 in
05:44 56.7 °F 51.8 °F 29.9 in SSO 3.6 mph 6.2 mph 84% 0 in
05:49 56.5 °F 51.4 °F 29.9 in SSO 3.6 mph 6 mph 83.2% 0 in
05:54 56.5 °F 51.4 °F 29.9 in SO 3.6 mph 6 mph 83% 0 in
05:59 56.5 °F 51.4 °F 29.9 in SO 3.4 mph 5.8 mph 83% 0 in
06:04 56.5 °F 51.4 °F 29.9 in SO 3.1 mph 6 mph 83% 0 in
06:09 56.5 °F 51.4 °F 29.9 in SO 3.1 mph 6 mph 83% 0 in
06:14 56.5 °F 51.4 °F 29.9 in SO 3.1 mph 6 mph 83% 0 in
06:19 56.5 °F 51.4 °F 29.9 in OSO 3 mph 6.2 mph 83% 0 in
06:24 56.5 °F 51.3 °F 29.9 in OSO 2.9 mph 6 mph 83% 0 in
06:29 56.3 °F 51.4 °F 29.9 in OSO 3 mph 6 mph 83.8% 0 in
06:34 56.1 °F 51.3 °F 29.9 in Oeste 3.1 mph 6 mph 83.7% 0 in
06:39 56.1 °F 51.4 °F 29.9 in Oeste 3 mph 5.2 mph 84% 0 in
06:44 55.9 °F 51.3 °F 29.9 in Oeste 2.9 mph 5 mph 84% 0 in
06:49 55.9 °F 51.3 °F 29.9 in Oeste 2.5 mph 4 mph 84.3% 0 in
06:54 55.8 °F 51.3 °F 29.9 in Oeste 1.8 mph 4 mph 85% 0 in
06:59 55.6 °F 51.1 °F 29.9 in Oeste 1.9 mph 4.6 mph 85% 0 in
07:04 55.6 °F 51.4 °F 29.9 in ONO 2 mph 5 mph 86% 0 in
07:09 55.6 °F 51.4 °F 29.9 in Oeste 2.1 mph 5 mph 86% 0 in
07:14 55.4 °F 51.3 °F 29.9 in Oeste 2.4 mph 5.2 mph 86% 0 in
07:19 55.2 °F 51.4 °F 29.9 in Oeste 2.4 mph 5 mph 86.8% 0 in
07:24 55.2 °F 51.4 °F 29.9 in Oeste 2.4 mph 5 mph 87% 0 in
07:29 55.2 °F 51.4 °F 29.9 in OSO 2.2 mph 4.7 mph 87% 0 in
07:34 55.4 °F 51.6 °F 29.9 in OSO 2 mph 5 mph 87% 0 in
07:39 55.6 °F 51.6 °F 29.9 in OSO 1.9 mph 5 mph 87% 0 in
07:44 55.6 °F 51.8 °F 29.9 in OSO 1.8 mph 1 mph 87% 0 in
07:49 55.8 °F 51.6 °F 29.9 in OSO 1.2 mph 3.6 mph 86.3% 0 in
07:54 55.8 °F 51.6 °F 29.9 in Calm   4 mph 86% 0 in
07:59 55.9 °F 52 °F 29.9 in OSO 0.6 mph 4.6 mph 86% 0 in
08:04 56.1 °F 52 °F 29.9 in OSO 1.4 mph 5 mph 85.6% 0 in
08:09 56.5 °F 52 °F 29.9 in OSO 1.5 mph 3.6 mph 85% 0 in
08:14 56.7 °F 52 °F 29.9 in OSO 1.8 mph 4.6 mph 84.7% 0 in
08:19 56.8 °F 52 °F 29.9 in OSO 2 mph 5 mph 84% 0 in
08:24 57 °F 52.2 °F 29.9 in OSO 2.4 mph 4 mph 83.5% 0 in
08:29 57.6 °F 52.2 °F 29.9 in OSO 2.3 mph 4.6 mph 82.5% 0 in
08:34 57.7 °F 52 °F 29.9 in OSO 2 mph 5.2 mph 81.5% 0 in
08:39 57.9 °F 52.2 °F 29.9 in OSO 2.3 mph 5.2 mph 81% 0 in
08:44 58.3 °F 52.3 °F 29.9 in SO 2.9 mph 5.2 mph 80.5% 0 in
08:49 58.6 °F 52.2 °F 29.9 in SO 2.7 mph 5 mph 79.3% 0 in
08:54 58.8 °F 52 °F 29.9 in OSO 2.4 mph 7.6 mph 77.7% 0 in
08:59 59.2 °F 51.8 °F 29.9 in OSO 3.1 mph 8.1 mph 76.7% 0 in
09:04 59.2 °F 51.8 °F 29.9 in OSO 4 mph 8 mph 76.6% 0 in
09:09 59.4 °F 51.4 °F 29.9 in OSO 3.9 mph 8.1 mph 74.9% 0 in
09:14 59.5 °F 50.7 °F 29.9 in OSO 3.6 mph 9.7 mph 73% 0 in
09:19 59.5 °F 50.5 °F 29.9 in OSO 4.3 mph 10 mph 72.2% 0 in
09:24 59.5 °F 50.7 °F 29.9 in Oeste 5.9 mph 10 mph 72.5% 0 in
09:29 59.7 °F 50.7 °F 29.9 in OSO 5.7 mph 10.4 mph 71.9% 0 in
09:34 59.5 °F 50.5 °F 29.9 in OSO 5.2 mph 10 mph 71.8% 0 in
09:39 59.7 °F 50.5 °F 29.9 in OSO 5 mph 9 mph 71.4% 0 in
09:44 59.9 °F 49.8 °F 29.9 in OSO 4.7 mph 8.1 mph 69% 0 in
09:49 60.3 °F 49.3 °F 29.9 in Oeste 4.7 mph 9.7 mph 67.2% 0 in
09:54 60.4 °F 48.7 °F 29.9 in Oeste 4.7 mph 10 mph 65.2% 0 in
09:59 60.6 °F 48.4 °F 29.9 in OSO 4.7 mph 10.4 mph 63.9% 0 in
10:04 60.8 °F 48 °F 29.9 in Oeste 4.7 mph 10 mph 63% 0 in
10:09 61.2 °F 47.7 °F 29.9 in OSO 4.7 mph 11.5 mph 61.1% 0 in
10:14 61.3 °F 47.3 °F 29.9 in OSO 4.7 mph 12 mph 60.1% 0 in
10:19 61.9 °F 47.5 °F 29.9 in Oeste 4.2 mph 7 mph 59.1% 0 in
10:24 62.2 °F 47.7 °F 29.9 in Oeste 3.1 mph 7.4 mph 59% 0 in
10:29 62.4 °F 47.8 °F 29.9 in ONO 3.4 mph 7 mph 58.9% 0 in
10:34 62.4 °F 47.1 °F 29.9 in ONO 4 mph 8.5 mph 57.3% 0 in
10:39 62.4 °F 46.6 °F 29.9 in Oeste 4.2 mph 9.2 mph 56% 0 in
10:44 62.8 °F 46 °F 29.9 in Oeste 4.7 mph 9 mph 54.5% 0 in
10:49 63 °F 45.7 °F 29.9 in ONO 4.5 mph 8.1 mph 53.2% 0 in
10:54 63.1 °F 46.6 °F 29.9 in ONO 4 mph 8 mph 54.6% 0 in
10:59 63.7 °F 46.9 °F 29.9 in NO 3.6 mph 9.2 mph 54.5% 0 in
11:04 63.9 °F 47.3 °F 29.9 in NO 3.1 mph 9 mph 54.7% 0 in
11:09 64.4 °F 47.5 °F 29.9 in Oeste 2.9 mph 8 mph 54.4% 0 in
11:14 65.1 °F 47.3 °F 29.9 in SO 2.4 mph 9.2 mph 52.7% 0 in
11:19 65.3 °F 47.1 °F 29.9 in SSO 2.9 mph 9 mph 51.9% 0 in
11:24 64.9 °F 46.4 °F 29.9 in Sur 4 mph 9 mph 51.1% 0 in
11:29 64.9 °F 46.4 °F 29.9 in SE 4.2 mph 8 mph 51% 0 in
11:34 65.5 °F 45.3 °F 29.9 in Oeste 4.7 mph 7.4 mph 48.2% 0 in
11:39 65.7 °F 44.4 °F 29.9 in Oeste 4.3 mph 9.2 mph 46.3% 0 in
11:44 65.7 °F 43.7 °F 29.9 in Oeste 3.6 mph 10.7 mph 45% 0 in
11:49 65.8 °F 43.9 °F 29.9 in Oeste 4.3 mph 11 mph 45% 0 in
11:54 66 °F 43.9 °F 29.9 in Oeste 5.9 mph 11.8 mph 44.5% 0 in
11:59 66 °F 43.5 °F 29.9 in OSO 5.9 mph 12 mph 43.9% 0 in
12:04 66.4 °F 42.4 °F 29.9 in SSO 5.9 mph 9 mph 42% 0 in
12:09 66.6 °F 42.8 °F 29.9 in SSE 5.3 mph 9 mph 42% 0 in
12:14 67.1 °F 43.5 °F 29.9 in NE 4 mph 6 mph 42.4% 0 in
12:19 68 °F 43.7 °F 29.9 in North 3.4 mph 5.2 mph 41.5% 0 in
12:24 68.5 °F 43.9 °F 29.9 in ESE 2 mph 5.2 mph 40.9% 0 in
12:29 68.9 °F 43 °F 29.9 in Sur 2.3 mph 6.2 mph 39.2% 0 in
12:34 68.7 °F 42.8 °F 29.9 in Oeste 2.9 mph 10 mph 39% 0 in
12:39 68.5 °F 42.6 °F 29.9 in OSO 3.4 mph 10 mph 39% 0 in
12:44 68.4 °F 42.4 °F 29.9 in Oeste 4.3 mph 9.2 mph 39% 0 in
12:49 68.4 °F 42.4 °F 29.9 in SO 4.6 mph 10.4 mph 39% 0 in
12:54 68.4 °F 42.3 °F 29.9 in SSE 5.2 mph 10 mph 38.8% 0 in
12:59 68.4 °F 41.7 °F 29.9 in Oeste 4.7 mph 8.5 mph 38% 0 in
13:04 68.5 °F 42.4 °F 29.9 in SSO 4 mph 15 mph 38.9% 0 in
13:09 68.7 °F 42.4 °F 29.9 in SSO 4.7 mph 15 mph 38.4% 0 in
13:14 68.5 °F 42.3 °F 29.9 in SO 5.9 mph 11 mph 38.4% 0 in
13:19 68.7 °F 42.4 °F 29.9 in OSO 5.3 mph 10 mph 38.4% 0 in
13:24 68.9 °F 42.1 °F 29.9 in Oeste 4 mph 10.4 mph 37.9% 0 in
13:29 69.3 °F 41.2 °F 29.9 in OSO 4.2 mph 11.5 mph 36.1% 0 in
13:34 69.8 °F 40.5 °F 29.9 in SO 4.7 mph 12 mph 34.5% 0 in
13:39 70.3 °F 39.7 °F 29.9 in SSO 4.5 mph 8.5 mph 32.8% 0 in
13:44 70.3 °F 39.7 °F 29.9 in OSO 4 mph 10 mph 32.8% 0 in
13:49 70.3 °F 40.6 °F 29.9 in SO 4.2 mph 13 mph 34% 0 in
13:54 70.2 °F 41 °F 29.9 in Este 4.7 mph 13 mph 34.8% 0 in
13:59 70.2 °F 38.8 °F 29.9 in SO 5.5 mph 13.8 mph 31.9% 0 in
14:04 70.5 °F 38.5 °F 29.9 in Oeste 6.4 mph 14 mph 31% 0 in
14:09 71.1 °F 38.8 °F 29.9 in NO 5.7 mph 10 mph 31% 0 in
14:14 71.4 °F 39.2 °F 29.9 in Oeste 4.3 mph 10.4 mph 31% 0 in
14:19 71.4 °F 39.2 °F 29.9 in Oeste 4.8 mph 10 mph 31% 0 in
14:24 71.2 °F 38.8 °F 29.9 in OSO 5.9 mph 15.2 mph 30.7% 0 in
14:29 71.6 °F 38.8 °F 29.9 in Oeste 6 mph 19.2 mph 30.5% 0 in
14:34 72 °F 37.2 °F 29.9 in Oeste 6.2 mph 19 mph 28.2% 0 in
14:39 72 °F 35.8 °F 29.9 in ONO 6.4 mph 13 mph 26.6% 0 in
14:44 72.3 °F 35.8 °F 29.9 in NO 6.9 mph 13 mph 26.2% 0 in
14:49 73 °F 36.1 °F 29.9 in Oeste 5.6 mph 6 mph 26% 0 in
14:54 73.2 °F 36.1 °F 29.9 in North 3.1 mph 8.5 mph 26% 0 in
14:59 73.8 °F 36.9 °F 29.9 in NNO 3.5 mph 12.3 mph 26.2% 0 in
15:04 73.8 °F 37.8 °F 29.9 in Oeste 4 mph 16.1 mph 27.1% 0 in
15:09 73 °F 37.6 °F 29.8 in Oeste 5.2 mph 16.1 mph 27.6% 0 in
15:14 73 °F 37.9 °F 29.8 in SO 7.6 mph 10.4 mph 28% 0 in
15:19 73.6 °F 38.5 °F 29.8 in SO 6.8 mph 10.4 mph 28.2% 0 in
15:24 74.1 °F 38.5 °F 29.8 in OSO 5.2 mph 12.3 mph 27.5% 0 in
15:29 73.9 °F 38.3 °F 29.8 in SO 5.4 mph 12 mph 27.5% 0 in
15:34 73.8 °F 38.3 °F 29.8 in Sur 5.9 mph 10 mph 27.8% 0 in
15:39 73.9 °F 38.8 °F 29.8 in Este 5.3 mph 9 mph 28% 0 in
15:44 74.5 °F 39.2 °F 29.8 in NNE 4 mph 8 mph 27.9% 0 in
15:49 74.8 °F 38.7 °F 29.8 in ONO 3.7 mph 8.1 mph 27% 0 in
15:54 74.8 °F 38.7 °F 29.8 in ONO 3.1 mph 8.1 mph 27% 0 in
15:59 74.8 °F 38.3 °F 29.8 in NO 4 mph 12.7 mph 26.7% 0 in
16:04 75 °F 37.8 °F 29.8 in NO 5.2 mph 13 mph 26% 0 in
16:09 75.6 °F 38.1 °F 29.8 in ONO 4.9 mph 12 mph 26% 0 in
16:14 75.7 °F 38.7 °F 29.8 in SO 4.3 mph 9.2 mph 26.3% 0 in
16:19 75.9 °F 46.6 °F 29.8 in SE 4.3 mph 9 mph 35.4% 0 in
16:24 75.6 °F 42.4 °F 29.8 in SO 4.3 mph 13 mph 30.9% 0 in
16:29 75 °F 47.7 °F 29.8 in SSE 5 mph 15 mph 38% 0 in
16:34 74.3 °F 47.7 °F 29.8 in SO 6.4 mph 19 mph 39% 0 in
16:39 73.9 °F 47.3 °F 29.8 in Sur 7.5 mph 20.8 mph 39% 0 in
16:44 73.4 °F 47.8 °F 29.8 in Sur 10 mph 23 mph 40.5% 0 in
16:49 73.6 °F 48.9 °F 29.8 in SSE 10.6 mph 23 mph 41.7% 0 in
16:54 73.6 °F 50 °F 29.8 in SSE 11.8 mph 21 mph 43.3% 0 in
16:59 73.2 °F 49.5 °F 29.8 in SE 11.6 mph 19 mph 43% 0 in
17:04 73.6 °F 50 °F 29.8 in SSE 11.2 mph 17 mph 43.6% 0 in
17:09 73.6 °F 50.4 °F 29.8 in SE 10.8 mph 18.4 mph 44.1% 0 in
17:14 73.4 °F 50.2 °F 29.8 in SSE 10 mph 19 mph 44.1% 0 in
17:19 73 °F 50.2 °F 29.8 in SSE 10.7 mph 19.2 mph 44.6% 0 in
17:24 73 °F 50.9 °F 29.8 in SE 12.3 mph 21.9 mph 45.8% 0 in
17:29 72.7 °F 51.1 °F 29.8 in SE 12 mph 23.5 mph 46.7% 0 in
17:34 72.1 °F 51.4 °F 29.8 in SE 11.4 mph 23 mph 48% 0 in
17:39 71.8 °F 51.6 °F 29.8 in SE 11.7 mph 22 mph 49% 0 in
17:44 71.8 °F 51.6 °F 29.8 in SE 12.5 mph 22.3 mph 49% 0 in
17:49 71.6 °F 51.4 °F 29.8 in SE 12.5 mph 22 mph 49% 0 in
17:54 71.6 °F 51.6 °F 29.8 in SSE 12.5 mph 22 mph 49.6% 0 in
17:59 71.6 °F 51.8 °F 29.8 in SSE 12.4 mph 22 mph 49.6% 0 in
18:04 72 °F 52 °F 29.8 in SE 12.3 mph 19.6 mph 49.2% 0 in
18:09 72.1 °F 52.2 °F 29.8 in SSE 11.9 mph 22.5 mph 49.6% 0 in
18:14 71.8 °F 52 °F 29.8 in SSE 11.2 mph 23 mph 49.6% 0 in
18:19 71.8 °F 52.2 °F 29.8 in SSE 11.6 mph 21 mph 50% 0 in
18:24 71.8 °F 52.3 °F 29.8 in SSE 12.3 mph 21 mph 50.4% 0 in
18:29 71.4 °F 52.2 °F 29.8 in SSE 12.4 mph 21.9 mph 50.7% 0 in
18:34 71.2 °F 52.2 °F 29.8 in SSE 12.5 mph 22 mph 51% 0 in
18:39 70.7 °F 52.7 °F 29.8 in Sur 12.7 mph 20.7 mph 52.9% 0 in
18:44 70.7 °F 53.1 °F 29.8 in SE 13 mph 21 mph 53.5% 0 in
18:49 70.9 °F 53.1 °F 29.8 in SE 12.4 mph 21.3 mph 53.5% 0 in
18:54 70.7 °F 53.2 °F 29.8 in SE 11.2 mph 21 mph 54.3% 0 in
18:59 70.5 °F 53.6 °F 29.8 in SE 11 mph 20 mph 55% 0 in
19:04 70.7 °F 53.8 °F 29.8 in SSE 10.7 mph 16.3 mph 55% 0 in
19:09 70.7 °F 53.8 °F 29.8 in SSE 10.1 mph 16 mph 55.2% 0 in
19:14 70.5 °F 54 °F 29.8 in SSE 8.7 mph 17.5 mph 55.8% 0 in
19:19 70.2 °F 54.1 °F 29.8 in SSE 9.1 mph 18.4 mph 56.6% 0 in
19:24 69.6 °F 54.1 °F 29.8 in SSE 10.2 mph 18.4 mph 57.9% 0 in
19:29 69.3 °F 54.3 °F 29.8 in SSE 10.5 mph 18.4 mph 58.8% 0 in
19:34 69.3 °F 54.1 °F 29.8 in SE 11.2 mph 18 mph 58.6% 0 in
19:39 69.3 °F 54.1 °F 29.8 in SSE 10.9 mph 17.3 mph 58.7% 0 in
19:44 69.4 °F 54.5 °F 29.8 in SSE 10.2 mph 17 mph 59% 0 in
19:49 69.1 °F 54.3 °F 29.8 in SSE 9.9 mph 16.1 mph 59.2% 0 in
19:54 68.7 °F 54.3 °F 29.8 in SSE 9.2 mph 15 mph 60% 0 in
19:59 68.5 °F 54.3 °F 29.8 in SSE 8.9 mph 14 mph 60.3% 0 in
20:04 68.5 °F 54.3 °F 29.8 in SSE 8.7 mph 16.1 mph 60.3% 0 in
20:09 68.5 °F 54.3 °F 29.8 in SSE 8.5 mph 16 mph 60.7% 0 in
20:14 68.4 °F 54.5 °F 29.8 in SSE 8.1 mph 14 mph 61% 0 in
20:19 68.4 °F 54.5 °F 29.8 in SSE 7.9 mph 15 mph 61% 0 in
20:24 68.2 °F 54.5 °F 29.8 in SSE 7.4 mph 15 mph 61.8% 0 in
20:29 67.8 °F 54.3 °F 29.8 in SSE 7.2 mph 12 mph 62% 0 in
20:34 67.6 °F 54.5 °F 29.8 in SSE 6.9 mph 14.5 mph 62.8% 0 in
20:39 67.5 °F 54.5 °F 29.8 in SSE 7.3 mph 15 mph 63.4% 0 in
20:44 67.1 °F 54.5 °F 29.8 in SSE 8.1 mph 15 mph 64% 0 in
20:49 66.9 °F 54.7 °F 29.8 in SSE 7.6 mph 12 mph 64.8% 0 in
20:54 66.9 °F 54.7 °F 29.8 in SE 6.4 mph 9 mph 65% 0 in
20:59 66.9 °F 54.9 °F 29.8 in SE 5.5 mph 9.2 mph 65% 0 in
21:04 66.7 °F 54.7 °F 29.9 in ESE 4.3 mph 9 mph 65% 0 in
21:09 66.6 °F 54.7 °F 29.9 in ESE 4.2 mph 7 mph 65.7% 0 in
21:14 66.2 °F 54.7 °F 29.9 in ESE 4 mph 8.1 mph 66.8% 0 in
21:19 65.8 °F 54.9 °F 29.9 in ESE 4.1 mph 8 mph 67.7% 0 in
21:24 65.7 °F 54.9 °F 29.9 in ESE 4.3 mph 7.4 mph 68.4% 0 in
21:29 65.3 °F 54.9 °F 29.9 in ESE 4.2 mph 7 mph 69.2% 0 in
21:34 64.9 °F 55 °F 29.9 in ESE 4 mph 7 mph 70% 0 in
21:39 64.9 °F 54.9 °F 29.9 in ESE 4 mph 6 mph 70% 0 in
21:44 64.8 °F 55 °F 29.9 in ESE 4 mph 6.4 mph 70.8% 0 in
21:49 64.6 °F 55 °F 29.9 in ESE 4 mph 6 mph 71.2% 0 in
21:54 64.4 °F 55.2 °F 29.9 in ESE 4 mph 7.4 mph 72% 0 in
21:59 64.2 °F 55 °F 29.9 in ESE 4.2 mph 7 mph 72% 0 in
22:04 64 °F 55.2 °F 29.9 in ESE 4.3 mph 8.1 mph 73% 0 in
22:09 63.9 °F 55.2 °F 29.9 in ESE 4.6 mph 8.7 mph 73.2% 0 in
22:14 63.9 °F 55.4 °F 29.9 in ESE 5.2 mph 9.2 mph 74% 0 in
22:19 63.7 °F 55.2 °F 29.9 in ESE 5.3 mph 9 mph 74% 0 in
22:24 63.5 °F 55.2 °F 29.9 in ESE 5.4 mph 8 mph 74.5% 0 in
22:29 63.3 °F 55.2 °F 29.9 in ESE 5.3 mph 7.4 mph 75% 0 in
22:34 63.1 °F 55.2 °F 29.9 in ESE 5.2 mph 7 mph 75% 0 in
22:39 63.1 °F 55 °F 29.9 in ESE 4.9 mph 7 mph 75% 0 in
22:44 63.1 °F 55.2 °F 29.9 in ESE 4.3 mph 7.6 mph 75.7% 0 in
22:49 63 °F 55.2 °F 29.9 in ESE 4.4 mph 8.1 mph 76% 0 in
22:54 63 °F 55.2 °F 29.9 in ESE 4.7 mph 7 mph 76% 0 in
22:59 62.8 °F 55 °F 29.9 in ESE 4.4 mph 8.1 mph 76% 0 in
23:04 62.8 °F 55.2 °F 29.9 in ESE 4 mph 8 mph 76.4% 0 in
23:09 62.6 °F 55.2 °F 29.9 in ESE 4 mph 7 mph 77% 0 in
23:14 62.8 °F 55.4 °F 29.9 in ESE 4 mph 6 mph 77% 0 in
23:19 62.8 °F 55.4 °F 29.9 in ESE 3.7 mph 6.2 mph 77% 0 in
23:24 62.6 °F 55.2 °F 29.9 in ESE 3.1 mph 6.9 mph 77% 0 in
23:29 62.6 °F 55.4 °F 29.9 in ESE 3.1 mph 7 mph 77% 0 in
23:34 62.6 °F 55.4 °F 29.9 in Este 3.1 mph 5 mph 77% 0 in
23:39 62.4 °F 55.2 °F 29.9 in Este 2.7 mph 4 mph 77% 0 in
23:44 62.4 °F 55.2 °F 29.9 in Este 2 mph 4.6 mph 77.5% 0 in
23:49 62.4 °F 55.6 °F 29.9 in ESE 1.9 mph 5 mph 78% 0 in
23:54 62.4 °F 55.4 °F 29.9 in ESE 1.8 mph 6.4 mph 78% 0 in
23:59 62.2 °F 55.2 °F 29.9 in ESE 2.2 mph 6.9 mph 78% 0 in
Murcia-Puente Tocinos, España
Compliments of Weather Underground - 2.75 mb

La estación de MeteoMurcia.com, publica sus datos en los siguientes proyectos:

Weather Underground PWS IMURCIAP2 Meteoclimatic www.awekas.at

W3Counter
Web Analytics